Time;durP1;ratioP1;P1;durP2;ratioP2;P2;SDS_P1;SDS_P2;PMS_P1;PMS_P2;Temp;Humidity;BMP_temperature;BMP_pressure;BME280_temperature;BME280_humidity;BME280_pressure;Samples;Min_cycle;Max_cycle;Signal;HPM_P1;HPM_P2
2024/01/03 00:00:29;;;;;;;3.17;0.75;;;8.00;99.90;;;;;;4945072;28;20031;-87
2024/01/03 00:02:56;;;;;;;0.85;0.55;;;7.90;99.90;;;;;;4923363;29;20085;-88
2024/01/03 00:05:37;;;;;;;3.33;0.65;;;7.90;99.90;;;;;;4922515;29;20035;-87
2024/01/03 00:08:13;;;;;;;0.68;0.43;;;8.00;99.90;;;;;;4961265;28;20031;-89
2024/01/03 00:10:41;;;;;;;0.73;0.60;;;7.90;99.90;;;;;;4965982;28;20381;-88
2024/01/03 00:13:28;;;;;;;0.75;0.70;;;7.90;99.90;;;;;;4925847;29;20038;-88
2024/01/03 00:16:09;;;;;;;1.63;0.70;;;7.90;99.90;;;;;;4955482;28;20039;-88
2024/01/03 00:18:50;;;;;;;1.92;0.40;;;7.90;99.90;;;;;;4935724;29;20031;-88
2024/01/03 00:21:24;;;;;;;0.93;0.60;;;7.80;99.90;;;;;;4944401;28;20039;-87
2024/01/03 00:23:50;;;;;;;4.18;0.63;;;7.90;99.90;;;;;;4922001;29;20039;-89
2024/01/03 00:26:16;;;;;;;0.50;0.50;;;7.90;99.90;;;;;;4945428;28;20019;-90
2024/01/03 00:28:43;;;;;;;1.25;0.57;;;7.90;99.90;;;;;;4938208;28;20083;-88
2024/01/03 00:31:10;;;;;;;1.55;0.50;;;7.90;99.90;;;;;;4921636;29;20019;-88
2024/01/03 00:33:41;;;;;;;1.88;0.40;;;7.90;99.90;;;;;;4920299;29;20051;-90
2024/01/03 00:36:15;;;;;;;1.20;0.60;;;7.90;99.90;;;;;;4940615;28;20089;-86
2024/01/03 00:38:42;;;;;;;0.57;0.57;;;7.80;99.90;;;;;;4944605;28;20031;-86
2024/01/03 00:41:12;;;;;;;1.92;0.60;;;7.90;99.90;;;;;;4929348;29;20035;-89
2024/01/03 00:44:03;;;;;;;0.60;0.55;;;7.80;99.90;;;;;;4902181;29;20051;-89
2024/01/03 00:46:29;;;;;;;1.65;0.43;;;7.80;99.90;;;;;;4933972;28;20041;-87
2024/01/03 00:48:54;;;;;;;0.70;0.57;;;7.80;99.90;;;;;;4960764;28;20616;-91
2024/01/03 00:51:21;;;;;;;1.85;0.52;;;7.80;99.90;;;;;;4925580;28;20027;-91
2024/01/03 00:53:46;;;;;;;4.18;0.75;;;7.80;99.90;;;;;;4957997;28;20054;-91
2024/01/03 00:56:12;;;;;;;1.63;0.60;;;7.80;99.90;;;;;;4958759;28;20030;-90
2024/01/03 00:58:39;;;;;;;2.47;0.85;;;7.80;99.90;;;;;;4940933;28;20039;-89
2024/01/03 01:01:05;;;;;;;2.15;0.60;;;7.80;99.90;;;;;;4925647;29;20667;-87
2024/01/03 01:03:31;;;;;;;0.68;0.55;;;7.80;99.90;;;;;;4905710;29;20074;-91
2024/01/03 01:05:57;;;;;;;1.30;0.50;;;7.70;99.90;;;;;;4952878;28;20027;-91
2024/01/03 01:08:23;;;;;;;2.20;0.73;;;7.70;99.90;;;;;;4939709;28;20110;-90
2024/01/03 01:10:49;;;;;;;1.75;0.40;;;7.70;99.90;;;;;;4945095;28;20551;-90
2024/01/03 01:13:14;;;;;;;2.95;0.50;;;7.80;99.90;;;;;;4934155;29;20093;-90
2024/01/03 01:15:59;;;;;;;0.80;0.47;;;7.70;99.90;;;;;;4945341;28;20085;-89
2024/01/03 01:18:25;;;;;;;0.52;0.50;;;7.70;99.90;;;;;;4936979;28;20031;-92
2024/01/03 01:20:51;;;;;;;2.40;0.60;;;7.70;99.90;;;;;;4928792;29;20035;-91
2024/01/03 01:23:17;;;;;;;4.10;0.60;;;7.70;99.90;;;;;;4939074;28;20031;-90
2024/01/03 01:25:42;;;;;;;0.50;0.50;;;7.70;99.90;;;;;;4939724;29;20057;-88
2024/01/03 01:28:08;;;;;;;1.58;0.70;;;7.70;99.90;;;;;;4912791;29;20120;-87
2024/01/03 01:30:34;;;;;;;2.10;0.85;;;7.70;99.90;;;;;;4940740;29;20125;-87
2024/01/03 01:33:00;;;;;;;0.60;0.52;;;7.70;99.90;;;;;;4931581;28;20380;-88
2024/01/03 01:35:25;;;;;;;2.03;0.77;;;7.70;99.90;;;;;;4931240;29;20046;-88
2024/01/03 01:37:51;;;;;;;1.15;0.60;;;7.70;99.90;;;;;;4943846;29;20039;-89
2024/01/03 01:40:17;;;;;;;1.30;0.50;;;7.60;99.90;;;;;;4943957;29;20044;-87
2024/01/03 01:42:43;;;;;;;2.05;0.63;;;7.60;99.90;;;;;;4960407;28;20125;-88
2024/01/03 01:45:10;;;;;;;1.50;0.45;;;7.60;99.90;;;;;;4944769;28;20019;-87
2024/01/03 01:47:41;;;;;;;3.47;0.95;;;7.60;99.90;;;;;;4931340;28;20104;-86
2024/01/03 01:50:08;;;;;;;1.35;0.60;;;7.60;99.90;;;;;;4923143;28;20062;-88
2024/01/03 01:52:35;;;;;;;4.43;0.68;;;7.60;99.90;;;;;;4936896;28;20027;-89
2024/01/03 01:55:02;;;;;;;0.70;0.32;;;7.60;99.90;;;;;;4944089;28;20526;-87
2024/01/03 01:57:31;;;;;;;0.73;0.52;;;7.60;99.90;;;;;;4935929;29;20047;-88
2024/01/03 01:59:57;;;;;;;3.42;0.30;;;7.60;99.90;;;;;;4937880;29;20468;-90
2024/01/03 02:02:23;;;;;;;3.05;0.60;;;7.60;99.90;;;;;;4953586;28;20042;-89
2024/01/03 02:04:49;;;;;;;0.47;0.40;;;7.60;99.90;;;;;;4951911;28;20162;-89
2024/01/03 02:07:16;;;;;;;1.10;0.50;;;7.50;99.90;;;;;;4936958;29;20027;-87
2024/01/03 02:09:42;;;;;;;1.55;0.73;;;7.50;99.90;;;;;;4927022;29;20039;-87
2024/01/03 02:12:08;;;;;;;1.27;0.50;;;7.50;99.90;;;;;;4924517;29;20038;-88
2024/01/03 02:14:34;;;;;;;2.72;0.63;;;7.50;99.90;;;;;;4921292;28;20040;-89
2024/01/03 02:17:01;;;;;;;1.10;0.95;;;7.50;99.90;;;;;;4956367;28;20038;-88
2024/01/03 02:19:27;;;;;;;0.60;0.40;;;7.50;99.90;;;;;;4927016;29;20111;-89
2024/01/03 02:21:52;;;;;;;3.10;0.70;;;7.50;99.90;;;;;;4912087;29;20282;-89
2024/01/03 02:24:18;;;;;;;5.43;0.50;;;7.50;99.90;;;;;;4911928;28;20496;-88
2024/01/03 02:26:45;;;;;;;0.88;0.40;;;7.40;99.90;;;;;;4936760;28;20070;-87
2024/01/03 02:29:10;;;;;;;1.98;0.52;;;7.40;99.90;;;;;;4928652;29;20054;-88
2024/01/03 02:31:36;;;;;;;0.70;0.40;;;7.40;99.90;;;;;;4937189;29;20118;-89
2024/01/03 02:34:02;;;;;;;1.55;0.30;;;7.40;99.90;;;;;;4950777;28;20054;-86
2024/01/03 02:36:28;;;;;;;0.77;0.40;;;7.40;99.90;;;;;;4904456;29;20539;-89
2024/01/03 02:38:54;;;;;;;1.65;0.40;;;7.40;99.90;;;;;;4922178;28;20070;-87
2024/01/03 02:41:20;;;;;;;1.35;0.98;;;7.40;99.90;;;;;;4929131;28;20617;-88
2024/01/03 02:43:45;;;;;;;1.15;0.38;;;7.40;99.90;;;;;;4926273;28;20039;-87
2024/01/03 02:46:11;;;;;;;3.15;0.60;;;7.40;99.90;;;;;;4961624;28;20082;-88
2024/01/03 02:48:40;;;;;;;1.13;0.40;;;7.40;99.90;;;;;;4921342;28;20090;-88
2024/01/03 02:51:06;;;;;;;3.10;0.65;;;7.40;99.90;;;;;;4914322;28;20395;-87
2024/01/03 02:53:32;;;;;;;1.52;0.38;;;7.40;99.90;;;;;;4941557;28;20095;-86
2024/01/03 02:55:58;;;;;;;1.67;0.30;;;7.40;99.90;;;;;;4926140;28;20089;-88
2024/01/03 02:58:24;;;;;;;0.47;0.30;;;7.40;99.90;;;;;;4926253;28;20419;-88
2024/01/03 03:00:49;;;;;;;0.40;0.40;;;7.40;99.90;;;;;;4946364;28;20042;-88
2024/01/03 03:03:15;;;;;;;0.28;0.28;;;7.40;99.90;;;;;;4957646;28;20357;-87
2024/01/03 03:05:41;;;;;;;1.98;0.40;;;7.40;99.90;;;;;;4947096;28;20039;-88
2024/01/03 03:08:07;;;;;;;3.22;0.32;;;7.30;99.90;;;;;;4929346;29;20043;-86
2024/01/03 03:10:32;;;;;;;1.10;0.40;;;7.30;99.90;;;;;;4930918;28;20039;-87
2024/01/03 03:12:58;;;;;;;3.05;0.30;;;7.30;99.90;;;;;;4941650;28;20129;-87
2024/01/03 03:15:24;;;;;;;3.00;0.50;;;7.40;99.90;;;;;;4941587;28;20031;-87
2024/01/03 03:17:50;;;;;;;1.52;0.40;;;7.40;99.90;;;;;;4957362;28;20039;-88
2024/01/03 03:20:16;;;;;;;3.03;0.40;;;7.40;99.90;;;;;;4943682;28;20030;-88
2024/01/03 03:22:41;;;;;;;0.73;0.45;;;7.30;99.90;;;;;;4931294;28;20043;-87
2024/01/03 03:25:07;;;;;;;0.50;0.20;;;7.30;99.90;;;;;;4923240;29;20027;-87
2024/01/03 03:27:33;;;;;;;1.95;0.68;;;7.30;99.90;;;;;;4930413;28;20045;-86
2024/01/03 03:30:01;;;;;;;1.67;1.10;;;7.30;99.90;;;;;;4946064;28;20035;-88
2024/01/03 03:32:27;;;;;;;0.70;0.20;;;7.30;99.90;;;;;;4962837;28;20096;-87
2024/01/03 03:34:53;;;;;;;0.65;0.30;;;7.30;99.90;;;;;;4962778;28;20043;-86
2024/01/03 03:37:19;;;;;;;1.30;0.30;;;7.30;99.90;;;;;;4946662;28;20026;-86
2024/01/03 03:39:44;;;;;;;0.32;0.30;;;7.30;99.90;;;;;;4947179;28;20122;-87
2024/01/03 03:42:10;;;;;;;3.28;0.50;;;7.30;99.90;;;;;;4929330;28;20150;-88
2024/01/03 03:44:40;;;;;;;1.80;0.40;;;7.30;99.90;;;;;;4942039;28;20055;-87
2024/01/03 03:47:06;;;;;;;0.85;0.20;;;7.30;99.90;;;;;;4933237;28;20027;-88
2024/01/03 03:49:32;;;;;;;2.00;0.30;;;7.30;99.90;;;;;;4929153;28;20034;-88
2024/01/03 03:51:57;;;;;;;2.65;0.60;;;7.30;99.90;;;;;;4932367;28;20070;-88
2024/01/03 03:54:23;;;;;;;0.40;0.40;;;7.30;99.90;;;;;;4941008;28;20031;-89
2024/01/03 03:56:49;;;;;;;2.60;0.50;;;7.30;99.90;;;;;;4928867;28;20320;-88
2024/01/03 03:59:15;;;;;;;2.92;0.70;;;7.30;99.90;;;;;;4940357;29;20066;-87
2024/01/03 04:01:48;;;;;;;4.70;0.47;;;7.40;99.90;;;;;;4927475;28;20058;-88
2024/01/03 04:04:13;;;;;;;2.30;0.57;;;7.40;99.90;;;;;;4928953;28;20031;-89
2024/01/03 04:06:42;;;;;;;2.63;0.40;;;7.40;99.90;;;;;;4959713;28;20114;-87
2024/01/03 04:09:11;;;;;;;4.85;0.60;;;7.40;99.90;;;;;;4940556;28;20034;-88
2024/01/03 04:11:41;;;;;;;2.90;0.70;;;7.30;99.90;;;;;;4952389;28;20027;-87
2024/01/03 04:14:08;;;;;;;1.23;0.40;;;7.40;99.90;;;;;;4957546;28;20030;-87
2024/01/03 04:16:34;;;;;;;2.55;0.60;;;7.40;99.90;;;;;;4959127;28;20047;-88
2024/01/03 04:19:00;;;;;;;4.22;0.73;;;7.40;99.90;;;;;;4962385;28;20030;-88
2024/01/03 04:21:30;;;;;;;3.97;0.70;;;7.40;99.90;;;;;;4932337;28;20055;-88
2024/01/03 04:23:56;;;;;;;0.63;0.40;;;7.40;99.90;;;;;;4960447;28;20117;-89
2024/01/03 04:26:23;;;;;;;2.17;0.63;;;7.40;99.90;;;;;;4946105;28;20034;-87
2024/01/03 04:28:48;;;;;;;2.08;1.20;;;7.50;99.90;;;;;;4960086;28;20037;-90
2024/01/03 04:31:14;;;;;;;6.38;0.98;;;7.50;99.90;;;;;;4931163;28;20391;-89
2024/01/03 04:33:40;;;;;;;3.00;0.90;;;7.50;99.90;;;;;;4944334;28;20050;-89
2024/01/03 04:36:07;;;;;;;3.60;0.80;;;7.50;99.90;;;;;;4927772;28;20038;-88
2024/01/03 04:38:32;;;;;;;2.90;0.60;;;7.40;99.90;;;;;;4924995;28;20530;-89
2024/01/03 04:40:58;;;;;;;3.22;0.75;;;7.40;99.90;;;;;;4947395;28;20039;-88
2024/01/03 04:43:24;;;;;;;1.05;0.60;;;7.40;99.90;;;;;;4939189;29;20043;-88
2024/01/03 04:45:50;;;;;;;2.92;0.70;;;7.40;99.90;;;;;;4942602;28;20039;-88
2024/01/03 04:48:16;;;;;;;4.53;0.70;;;7.40;99.90;;;;;;4960470;28;20054;-89
2024/01/03 04:50:42;;;;;;;2.58;0.65;;;7.40;99.90;;;;;;4940831;28;20114;-88
2024/01/03 04:53:08;;;;;;;5.53;0.88;;;7.40;99.90;;;;;;4926180;28;20150;-88
2024/01/03 04:55:33;;;;;;;3.08;0.82;;;7.40;99.90;;;;;;4928133;29;20129;-89
2024/01/03 04:57:59;;;;;;;3.67;0.75;;;7.40;99.90;;;;;;4924405;28;20483;-89
2024/01/03 05:00:28;;;;;;;1.70;0.52;;;7.40;99.90;;;;;;4924141;29;20457;-89
2024/01/03 05:02:55;;;;;;;2.15;0.70;;;7.40;99.90;;;;;;4960109;28;20031;-89
2024/01/03 05:05:22;;;;;;;3.80;0.85;;;7.40;99.90;;;;;;4941755;28;20038;-89
2024/01/03 05:07:47;;;;;;;5.53;0.90;;;7.40;99.90;;;;;;4932063;28;20388;-88
2024/01/03 05:10:13;;;;;;;9.57;1.02;;;7.40;99.90;;;;;;4929159;28;20054;-90
2024/01/03 05:12:39;;;;;;;6.88;1.05;;;7.40;99.90;;;;;;4926267;28;20047;-90
2024/01/03 05:15:07;;;;;;;3.92;0.98;;;7.40;99.90;;;;;;4925159;28;20085;-89
2024/01/03 05:17:33;;;;;;;2.92;0.70;;;7.40;99.90;;;;;;4951989;28;20047;-89
2024/01/03 05:19:58;;;;;;;3.92;0.55;;;7.40;99.90;;;;;;4940586;28;20050;-89
2024/01/03 05:22:24;;;;;;;4.00;0.60;;;7.30;99.90;;;;;;4927130;28;20251;-88
2024/01/03 05:24:51;;;;;;;2.00;0.52;;;7.30;99.90;;;;;;4942655;28;20035;-87
2024/01/03 05:27:17;;;;;;;4.53;0.60;;;7.30;99.90;;;;;;4943038;28;20038;-88
2024/01/03 05:29:42;;;;;;;3.42;0.60;;;7.20;99.90;;;;;;4921848;28;20036;-87
2024/01/03 05:32:09;;;;;;;4.03;0.85;;;7.20;99.90;;;;;;4944183;28;20062;-89
2024/01/03 05:34:34;;;;;;;1.38;0.40;;;7.20;99.90;;;;;;4955938;28;20110;-88
2024/01/03 05:37:00;;;;;;;3.33;0.40;;;7.20;99.90;;;;;;4920204;29;20375;-88
2024/01/03 05:39:26;;;;;;;2.63;0.47;;;7.20;99.90;;;;;;4942977;28;20046;-89
2024/01/03 05:41:52;;;;;;;2.85;0.40;;;7.20;99.90;;;;;;4956254;28;20054;-88
2024/01/03 05:44:17;;;;;;;3.00;0.50;;;7.20;99.90;;;;;;4942535;28;20070;-87
2024/01/03 05:46:43;;;;;;;4.50;0.45;;;7.20;99.90;;;;;;4938365;28;20050;-89
2024/01/03 05:49:09;;;;;;;1.85;0.47;;;7.10;99.90;;;;;;4920546;29;20086;-88
2024/01/03 05:51:35;;;;;;;5.30;0.40;;;7.20;99.90;;;;;;4955203;28;20040;-88
2024/01/03 05:54:01;;;;;;;3.15;0.60;;;7.20;99.90;;;;;;4926009;28;20117;-87
2024/01/03 05:56:27;;;;;;;1.83;0.50;;;7.20;99.90;;;;;;4939515;29;20069;-87
2024/01/03 05:58:53;;;;;;;2.17;0.60;;;7.20;99.90;;;;;;4951694;28;20031;-89
2024/01/03 06:01:19;;;;;;;2.55;0.60;;;7.10;99.90;;;;;;4924193;28;20038;-88
2024/01/03 06:03:46;;;;;;;5.97;0.63;;;7.10;99.90;;;;;;4922589;28;20050;-87
2024/01/03 06:06:12;;;;;;;1.60;0.55;;;7.10;99.90;;;;;;4926020;28;20061;-88
2024/01/03 06:08:38;;;;;;;1.83;0.98;;;7.10;99.90;;;;;;4925589;28;20059;-86
2024/01/03 06:11:04;;;;;;;6.43;0.77;;;7.10;99.90;;;;;;4923886;29;20369;-87
2024/01/03 06:13:29;;;;;;;2.78;0.70;;;7.10;99.90;;;;;;4940548;29;20066;-87
2024/01/03 06:15:55;;;;;;;3.55;0.52;;;7.20;99.90;;;;;;4937631;28;20457;-88
2024/01/03 06:18:21;;;;;;;2.38;1.10;;;7.10;99.90;;;;;;4920007;29;20032;-86
2024/01/03 06:20:47;;;;;;;2.95;0.73;;;7.10;99.90;;;;;;4934948;28;20090;-87
2024/01/03 06:23:13;;;;;;;3.45;0.88;;;7.20;99.90;;;;;;4914785;29;20671;-87
2024/01/03 06:25:39;;;;;;;4.60;0.95;;;7.20;99.90;;;;;;4935305;28;20065;-86
2024/01/03 06:28:05;;;;;;;4.35;0.80;;;7.20;99.90;;;;;;4939192;28;20039;-88
2024/01/03 06:30:31;;;;;;;6.20;0.90;;;7.20;99.90;;;;;;4957624;28;20110;-88
2024/01/03 06:32:57;;;;;;;4.22;0.57;;;7.20;99.90;;;;;;4937875;28;20527;-87
2024/01/03 06:35:22;;;;;;;2.53;1.15;;;7.20;99.90;;;;;;4942561;28;20390;-87
2024/01/03 06:37:48;;;;;;;2.17;0.60;;;7.20;99.90;;;;;;4928498;28;20039;-88
2024/01/03 06:40:14;;;;;;;2.15;0.50;;;7.30;99.90;;;;;;4963079;28;20032;-86
2024/01/03 06:42:40;;;;;;;4.97;0.70;;;7.30;99.90;;;;;;4940705;29;20038;-87
2024/01/03 06:45:07;;;;;;;2.88;0.60;;;7.30;99.90;;;;;;4955405;28;20019;-86
2024/01/03 06:47:33;;;;;;;4.03;0.93;;;7.30;99.90;;;;;;4956733;28;20073;-89
2024/01/03 06:49:58;;;;;;;1.23;0.50;;;7.30;99.90;;;;;;4950915;28;20058;-87
2024/01/03 06:52:24;;;;;;;3.13;0.60;;;7.30;99.90;;;;;;4931773;29;20074;-87
2024/01/03 06:54:50;;;;;;;5.75;0.80;;;7.30;99.90;;;;;;4973706;28;20042;-86
2024/01/03 06:57:16;;;;;;;5.80;0.80;;;7.30;99.90;;;;;;4970180;28;20046;-86
2024/01/03 06:59:42;;;;;;;2.33;0.47;;;7.30;99.90;;;;;;4955291;29;20542;-88
2024/01/03 07:02:08;;;;;;;2.22;0.70;;;7.30;99.90;;;;;;4941002;29;20130;-88
2024/01/03 07:04:34;;;;;;;2.00;0.57;;;7.30;99.90;;;;;;4941409;29;20032;-88
2024/01/03 07:07:00;;;;;;;4.32;0.63;;;7.30;99.90;;;;;;4940975;29;20035;-88
2024/01/03 07:09:26;;;;;;;4.35;0.73;;;7.30;99.90;;;;;;4924919;29;20043;-88
2024/01/03 07:11:52;;;;;;;4.32;0.77;;;7.30;99.90;;;;;;4925070;29;20027;-88
2024/01/03 07:14:18;;;;;;;4.32;0.80;;;7.30;99.90;;;;;;4924716;28;20510;-88
2024/01/03 07:16:44;;;;;;;4.05;1.00;;;7.20;99.90;;;;;;4940609;29;20023;-88
2024/01/03 07:19:10;;;;;;;3.20;0.82;;;7.30;99.90;;;;;;4956409;29;20032;-88
2024/01/03 07:21:36;;;;;;;4.35;0.90;;;7.30;99.90;;;;;;4924652;29;20030;-88
2024/01/03 07:24:02;;;;;;;4.65;0.70;;;7.30;99.90;;;;;;4940760;29;20039;-86
2024/01/03 07:26:28;;;;;;;4.47;1.00;;;7.30;99.90;;;;;;4940182;29;20086;-88
2024/01/03 07:28:54;;;;;;;8.93;0.98;;;7.20;99.90;;;;;;4937170;29;20039;-88
2024/01/03 07:31:20;;;;;;;7.30;0.98;;;7.30;99.90;;;;;;4955515;29;20028;-87
2024/01/03 07:33:46;;;;;;;6.30;0.63;;;7.30;99.90;;;;;;4938928;29;20044;-88
2024/01/03 07:36:12;;;;;;;4.53;0.80;;;7.30;99.90;;;;;;4936016;29;20054;-87
2024/01/03 07:38:37;;;;;;;4.85;0.80;;;7.30;99.90;;;;;;4931721;28;20045;-88
2024/01/03 07:41:03;;;;;;;6.15;0.90;;;7.20;99.90;;;;;;4942199;28;20031;-89
2024/01/03 07:43:30;;;;;;;5.32;1.08;;;7.20;99.90;;;;;;4935066;28;20488;-87
2024/01/03 07:45:59;;;;;;;4.47;0.90;;;7.20;99.90;;;;;;4941254;28;20495;-88
2024/01/03 07:48:24;;;;;;;4.63;0.60;;;7.20;99.90;;;;;;4956969;29;20039;-88
2024/01/03 07:50:50;;;;;;;4.47;0.52;;;7.30;99.90;;;;;;4955823;28;20031;-87
2024/01/03 07:53:16;;;;;;;5.13;1.05;;;7.30;99.90;;;;;;4924326;29;20062;-87
2024/01/03 07:55:42;;;;;;;2.83;0.90;;;7.30;99.90;;;;;;4913095;29;20134;-87
2024/01/03 07:58:08;;;;;;;5.22;0.63;;;7.20;99.90;;;;;;4939560;29;20043;-86
2024/01/03 08:00:34;;;;;;;7.70;1.20;;;7.30;99.90;;;;;;4939333;29;20443;-87
2024/01/03 08:03:00;;;;;;;10.23;1.02;;;7.30;99.90;;;;;;4954745;29;20484;-86
2024/01/03 08:05:25;;;;;;;2.65;0.85;;;7.30;99.90;;;;;;4939624;29;20027;-87
2024/01/03 08:07:51;;;;;;;2.65;0.90;;;7.30;99.90;;;;;;4955128;28;20090;-86
2024/01/03 08:10:17;;;;;;;5.10;0.90;;;7.30;99.90;;;;;;4953744;29;20062;-87
2024/01/03 08:12:43;;;;;;;8.63;0.80;;;7.40;99.90;;;;;;4923160;29;20507;-87
2024/01/03 08:15:09;;;;;;;3.78;0.93;;;7.40;99.90;;;;;;4937911;29;20059;-87
2024/01/03 08:17:34;;;;;;;5.30;0.93;;;7.50;99.90;;;;;;4938333;29;20050;-88
2024/01/03 08:20:00;;;;;;;4.93;0.57;;;7.50;99.90;;;;;;4955992;29;20039;-87
2024/01/03 08:22:26;;;;;;;4.75;0.85;;;7.60;99.90;;;;;;4927598;29;20022;-88
2024/01/03 08:24:52;;;;;;;5.95;0.77;;;7.60;99.90;;;;;;4939381;29;20396;-88
2024/01/03 08:27:19;;;;;;;2.42;0.80;;;7.70;99.90;;;;;;4938704;29;20733;-87
2024/01/03 08:29:45;;;;;;;5.45;0.80;;;7.70;99.90;;;;;;4951456;28;20400;-86
2024/01/03 08:32:10;;;;;;;4.20;0.90;;;7.70;99.90;;;;;;4944777;29;20035;-87
2024/01/03 08:34:36;;;;;;;7.85;0.98;;;7.70;99.90;;;;;;4933966;28;20527;-87
2024/01/03 08:37:03;;;;;;;5.38;0.90;;;7.70;99.90;;;;;;4954640;28;20042;-87
2024/01/03 08:39:28;;;;;;;5.20;0.70;;;7.70;99.90;;;;;;4954242;28;20134;-88
2024/01/03 08:41:54;;;;;;;4.20;0.85;;;7.70;99.90;;;;;;4938021;28;20118;-88
2024/01/03 08:44:21;;;;;;;4.75;0.95;;;7.80;99.90;;;;;;4930100;28;20471;-86
2024/01/03 08:46:46;;;;;;;4.53;0.80;;;7.70;99.90;;;;;;4953914;28;20708;-86
2024/01/03 08:49:12;;;;;;;5.93;1.30;;;7.80;99.90;;;;;;4952296;28;20035;-87
2024/01/03 08:51:39;;;;;;;6.00;1.02;;;7.80;99.90;;;;;;4956966;28;20023;-87
2024/01/03 08:54:05;;;;;;;3.75;1.60;;;7.80;99.90;;;;;;4919767;29;20031;-87
2024/01/03 08:56:31;;;;;;;4.85;1.13;;;7.80;99.90;;;;;;4936369;29;20043;-86
2024/01/03 08:58:57;;;;;;;7.65;0.98;;;7.90;99.90;;;;;;4959922;28;20027;-86
2024/01/03 09:01:24;;;;;;;5.70;0.82;;;7.90;99.90;;;;;;4959256;28;20085;-87
2024/01/03 09:03:50;;;;;;;5.30;0.63;;;7.90;99.90;;;;;;4941562;28;20543;-86
2024/01/03 09:06:21;;;;;;;5.05;1.00;;;7.90;99.90;;;;;;4955428;28;20038;-87
2024/01/03 09:08:50;;;;;;;5.88;1.20;;;8.00;99.90;;;;;;4944535;28;20518;-86
2024/01/03 09:11:18;;;;;;;4.55;1.02;;;8.00;99.90;;;;;;4939169;28;20403;-88
2024/01/03 09:13:48;;;;;;;2.63;0.80;;;8.00;99.90;;;;;;4940605;28;20040;-86
2024/01/03 09:16:16;;;;;;;3.75;0.95;;;8.00;99.90;;;;;;4957426;28;20395;-87
2024/01/03 09:18:42;;;;;;;3.75;0.50;;;7.90;99.90;;;;;;4942171;28;20035;-86
2024/01/03 09:21:08;;;;;;;5.95;0.80;;;7.90;99.90;;;;;;4943171;29;20065;-86
2024/01/03 09:23:34;;;;;;;4.15;0.70;;;7.90;99.90;;;;;;4954738;28;20385;-86
2024/01/03 09:26:03;;;;;;;7.82;1.13;;;7.80;99.90;;;;;;4945885;28;20045;-88
2024/01/03 09:28:29;;;;;;;2.15;0.70;;;7.80;99.90;;;;;;4932085;29;20818;-87
2024/01/03 09:30:55;;;;;;;5.55;0.88;;;7.80;99.90;;;;;;4958102;28;20055;-86
2024/01/03 09:33:21;;;;;;;4.65;0.82;;;7.80;99.90;;;;;;4930282;28;20121;-86
2024/01/03 09:35:46;;;;;;;3.10;0.60;;;7.80;99.90;;;;;;4939758;28;20125;-86
2024/01/03 09:38:14;;;;;;;5.55;1.00;;;7.70;99.90;;;;;;4958806;28;20070;-88
2024/01/03 09:40:41;;;;;;;3.20;0.57;;;7.70;99.90;;;;;;4920934;28;20122;-87
2024/01/03 09:43:10;;;;;;;3.80;0.77;;;7.70;99.90;;;;;;4923242;29;20043;-87
2024/01/03 09:45:37;;;;;;;7.18;0.77;;;7.70;99.90;;;;;;4941468;28;20103;-86
2024/01/03 09:48:04;;;;;;;2.33;0.50;;;7.70;99.90;;;;;;4938881;28;20027;-87
2024/01/03 09:50:30;;;;;;;7.00;0.70;;;7.70;99.90;;;;;;4939795;29;20031;-87
2024/01/03 09:52:57;;;;;;;4.10;1.02;;;7.70;99.90;;;;;;4957723;28;20050;-86
2024/01/03 09:55:23;;;;;;;4.13;0.63;;;7.60;99.90;;;;;;4923580;29;20039;-86
2024/01/03 09:57:54;;;;;;;3.20;0.73;;;7.70;99.90;;;;;;4936073;28;20039;-88
2024/01/03 10:00:20;;;;;;;3.95;0.70;;;7.60;99.90;;;;;;4936819;29;20035;-86
2024/01/03 10:02:47;;;;;;;5.03;0.85;;;7.60;99.90;;;;;;4952156;28;20039;-87
2024/01/03 10:05:20;;;;;;;5.95;0.90;;;7.50;99.90;;;;;;4940102;28;20085;-87
2024/01/03 10:07:47;;;;;;;6.95;0.85;;;7.60;99.90;;;;;;4957557;28;20035;-87
2024/01/03 10:10:27;;;;;;;7.68;0.80;;;7.60;99.90;;;;;;4957860;28;20050;-86
2024/01/03 10:12:53;;;;;;;10.48;0.90;;;7.60;99.90;;;;;;4959730;28;20039;-87
2024/01/03 10:15:19;;;;;;;4.22;0.70;;;7.60;99.90;;;;;;4956980;28;20037;-87
2024/01/03 10:17:46;;;;;;;5.18;0.68;;;7.60;99.90;;;;;;4958342;28;20043;-86
2024/01/03 10:20:26;;;;;;;3.47;0.70;;;7.60;99.90;;;;;;4926945;28;20088;-88
2024/01/03 10:23:10;;;;;;;4.18;0.80;;;7.60;99.90;;;;;;4945601;28;20511;-87
2024/01/03 10:25:37;;;;;;;5.40;1.23;;;7.70;99.90;;;;;;4945257;29;20039;-86
2024/01/03 10:28:05;;;;;;;5.57;0.73;;;7.60;99.90;;;;;;4929685;28;20026;-87
2024/01/03 10:30:31;;;;;;;3.22;0.85;;;7.60;99.90;;;;;;4941219;29;20043;-87
2024/01/03 10:33:01;;;;;;;7.80;0.75;;;7.60;99.90;;;;;;4948481;28;20418;-87
2024/01/03 10:35:32;;;;;;;2.97;0.75;;;7.60;99.90;;;;;;4941798;29;20603;-87
2024/01/03 10:38:00;;;;;;;2.42;0.70;;;7.60;99.90;;;;;;4961844;28;20042;-88
2024/01/03 10:40:30;;;;;;;5.97;0.73;;;7.60;99.90;;;;;;4959867;28;20035;-87
2024/01/03 10:42:56;;;;;;;4.25;0.80;;;7.60;99.90;;;;;;4931551;28;20058;-87
2024/01/03 10:45:23;;;;;;;3.88;0.90;;;7.60;99.90;;;;;;4943328;28;20027;-87
2024/01/03 10:47:49;;;;;;;2.20;0.93;;;7.60;99.90;;;;;;4926767;28;20606;-90
2024/01/03 10:50:15;;;;;;;5.97;0.75;;;7.60;99.90;;;;;;4947964;28;20062;-88
2024/01/03 10:52:43;;;;;;;5.38;0.73;;;7.60;99.90;;;;;;4930324;28;20023;-87
2024/01/03 10:55:22;;;;;;;3.80;0.80;;;7.70;99.90;;;;;;4962807;28;20462;-88
2024/01/03 10:57:55;;;;;;;5.55;0.90;;;7.60;99.90;;;;;;4944541;29;20440;-87
2024/01/03 11:00:32;;;;;;;5.43;0.93;;;7.60;99.90;;;;;;4941596;28;20030;-87
2024/01/03 11:03:10;;;;;;;1.95;0.47;;;7.70;99.90;;;;;;4943366;28;20415;-88
2024/01/03 11:05:45;;;;;;;1.65;0.60;;;7.70;99.90;;;;;;4938127;29;20031;-87
2024/01/03 11:08:14;;;;;;;2.80;0.60;;;7.70;99.90;;;;;;4959449;28;20019;-87
2024/01/03 11:10:51;;;;;;;5.60;0.63;;;7.70;99.90;;;;;;4946117;28;20039;-87
2024/01/03 11:13:27;;;;;;;2.17;0.52;;;7.70;99.90;;;;;;4943264;29;20033;-88
2024/01/03 11:15:55;;;;;;;;;;;7.70;99.90;;;;;;4956993;28;20041;-87
2024/01/03 11:18:40;;;;;;;2.90;0.50;;;7.70;99.90;;;;;;4961494;28;19910;-88
2024/01/03 11:21:26;;;;;;;3.13;0.73;;;7.70;99.90;;;;;;4947514;28;20077;-88
2024/01/03 11:23:56;;;;;;;3.60;0.45;;;7.70;99.90;;;;;;4947556;28;20030;-88
2024/01/03 11:26:56;;;;;;;1.95;0.50;;;7.70;99.90;;;;;;4920346;29;20040;-87
2024/01/03 11:29:41;;;;;;;3.80;0.90;;;7.70;99.90;;;;;;4960725;28;20539;-88
2024/01/03 11:32:14;;;;;;;2.08;0.50;;;7.80;99.90;;;;;;4954917;28;20097;-89
2024/01/03 11:34:49;;;;;;;4.57;0.55;;;7.80;99.90;;;;;;4943380;29;20600;-87
2024/01/03 11:37:18;;;;;;;2.45;0.80;;;7.90;99.90;;;;;;4930608;28;20133;-87
2024/01/03 11:39:49;;;;;;;2.80;0.77;;;7.90;99.90;;;;;;4958824;28;20159;-87
2024/01/03 11:42:32;;;;;;;3.17;1.00;;;8.00;99.90;;;;;;4933025;28;20038;-89
2024/01/03 11:45:05;;;;;;;3.33;0.60;;;8.00;99.90;;;;;;4944954;28;20035;-87
2024/01/03 11:47:33;;;;;;;4.55;0.65;;;8.00;99.90;;;;;;4960325;28;20035;-87
2024/01/03 11:49:59;;;;;;;1.88;0.43;;;8.00;99.90;;;;;;4927321;28;20499;-88
2024/01/03 11:52:25;;;;;;;6.25;0.75;;;8.00;99.90;;;;;;4929600;28;20535;-87
2024/01/03 11:54:52;;;;;;;3.50;0.55;;;8.10;99.90;;;;;;4941229;29;20661;-88
2024/01/03 11:57:21;;;;;;;2.15;0.85;;;8.10;99.90;;;;;;4945012;28;20038;-88
2024/01/03 11:59:58;;;;;;;1.48;0.55;;;8.10;99.90;;;;;;4932798;28;20472;-87
2024/01/03 12:02:24;;;;;;;0.95;0.52;;;8.10;99.90;;;;;;4960566;28;20050;-88
2024/01/03 12:05:05;;;;;;;3.58;0.38;;;8.10;99.90;;;;;;4942728;28;20031;-89
2024/01/03 12:07:36;;;;;;;1.80;0.60;;;8.10;99.90;;;;;;4957901;28;20062;-89
2024/01/03 12:10:04;;;;;;;3.47;1.15;;;8.10;99.90;;;;;;4945513;28;20117;-89
2024/01/03 12:12:30;;;;;;;2.05;0.52;;;8.10;99.90;;;;;;4947430;28;20034;-88
2024/01/03 12:14:56;;;;;;;1.98;0.60;;;8.10;99.90;;;;;;4940820;28;20039;-88
2024/01/03 12:17:30;;;;;;;2.08;0.40;;;8.10;99.90;;;;;;4943312;28;20034;-88
2024/01/03 12:20:13;;;;;;;8.48;0.63;;;8.10;99.90;;;;;;4961304;28;20488;-86
2024/01/03 12:22:39;;;;;;;1.52;0.50;;;8.10;99.90;;;;;;4938478;28;20043;-87
2024/01/03 12:25:05;;;;;;;1.85;0.40;;;8.10;99.90;;;;;;4957675;28;20069;-88
2024/01/03 12:27:33;;;;;;;1.42;0.40;;;8.00;99.90;;;;;;4942497;29;20058;-88
2024/01/03 12:30:18;;;;;;;2.25;0.30;;;8.00;99.90;;;;;;4930637;28;20039;-87
2024/01/03 12:32:45;;;;;;;1.55;0.30;;;8.00;99.90;;;;;;4938898;28;20510;-86
2024/01/03 12:35:12;;;;;;;2.92;0.40;;;8.10;99.90;;;;;;4928847;28;20027;-87
2024/01/03 12:37:47;;;;;;;2.85;0.60;;;8.10;99.90;;;;;;4919187;29;20031;-86
2024/01/03 12:40:14;;;;;;;;;;;8.10;99.90;;;;;;4945788;28;20031;-87
2024/01/03 12:42:44;;;;;;;2.42;0.32;;;8.10;99.90;;;;;;4936946;28;19914;-86
2024/01/03 12:45:11;;;;;;;3.90;0.40;;;8.10;99.90;;;;;;4941446;28;20041;-86
2024/01/03 12:47:37;;;;;;;1.08;0.30;;;8.10;99.90;;;;;;4942559;28;20495;-89
2024/01/03 12:50:03;;;;;;;3.42;0.45;;;8.20;99.90;;;;;;4944063;28;20059;-88
2024/01/03 12:52:31;;;;;;;3.42;0.40;;;8.10;99.90;;;;;;4944063;28;20035;-85
2024/01/03 12:54:57;;;;;;;1.63;0.50;;;8.10;99.90;;;;;;4943756;28;20035;-86
2024/01/03 12:57:23;;;;;;;2.38;0.68;;;8.10;99.90;;;;;;4938001;29;20619;-88
2024/01/03 12:59:49;;;;;;;3.83;0.40;;;8.00;99.90;;;;;;4943188;28;20082;-88